Time;durP1;ratioP1;P1;durP2;ratioP2;P2;SDS_P1;SDS_P2;PMS_P1;PMS_P2;Temp;Humidity;BMP_temperature;BMP_pressure;BME280_temperature;BME280_humidity;BME280_pressure;Samples;Min_cycle;Max_cycle;Signal;HPM_P1;HPM_P2
2023/07/22 00:00:29;;;;;;;4.50;4.10;;;;;;;18.44;70.12;99547.39;131128;1252;107514;-76
2023/07/22 00:03:54;;;;;;;4.80;4.30;;;;;;;18.44;70.30;99537.48;131102;1253;106919;-76
2023/07/22 00:07:00;;;;;;;5.10;4.60;;;;;;;18.43;70.43;99537.63;131113;1251;107318;-76
2023/07/22 00:10:06;;;;;;;5.90;5.10;;;;;;;18.41;70.74;99534.77;131129;1252;107514;-76
2023/07/22 00:13:12;;;;;;;4.70;4.20;;;;;;;18.39;70.95;99540.65;131115;1264;107280;-76
2023/07/22 00:16:17;;;;;;;6.30;4.30;;;;;;;18.37;71.01;99540.05;131055;1251;107562;-76
2023/07/22 00:19:23;;;;;;;4.90;4.30;;;;;;;18.37;71.11;99548.24;131105;1252;107678;-77
2023/07/22 00:22:29;;;;;;;4.90;4.40;;;;;;;18.38;71.22;99548.86;131105;1254;107631;-77
2023/07/22 00:25:35;;;;;;;5.50;5.00;;;;;;;18.38;71.25;99541.53;131130;1256;107279;-77
2023/07/22 00:28:41;;;;;;;5.20;4.70;;;;;;;18.38;71.48;99544.95;131171;1255;105889;-77
2023/07/22 00:31:47;;;;;;;4.70;4.20;;;;;;;18.37;71.49;99547.61;131091;1251;107174;-77
2023/07/22 00:34:52;;;;;;;4.70;4.20;;;;;;;18.36;71.52;99536.83;130982;1261;112531;-77
2023/07/22 00:37:58;;;;;;;6.00;5.00;;;;;;;18.37;71.60;99534.69;131019;1254;107577;-76
2023/07/22 00:41:04;;;;;;;6.10;5.50;;;;;;;18.27;73.12;99545.83;131144;1256;107239;-75
2023/07/22 00:44:10;;;;;;;7.10;5.40;;;;;;;17.87;75.64;99552.94;131147;1251;107273;-75
2023/07/22 00:47:17;;;;;;;7.10;6.40;;;;;;;17.72;74.11;99554.09;131076;1254;107477;-75
2023/07/22 00:50:24;;;;;;;5.00;3.90;;;;;;;17.59;76.67;99569.52;131084;1259;107554;-75
2023/07/22 00:53:30;;;;;;;7.50;6.20;;;;;;;17.49;74.63;99557.80;131087;1254;107381;-75
2023/07/22 00:56:39;;;;;;;7.40;6.30;;;;;;;17.46;76.45;99561.04;131091;1249;107541;-75
2023/07/22 00:59:45;;;;;;;6.70;6.10;;;;;;;17.40;75.18;99558.17;131157;1251;107538;-75
2023/07/22 01:02:51;;;;;;;7.20;6.50;;;;;;;17.47;74.95;99553.12;131097;1254;107524;-75
2023/07/22 01:05:58;;;;;;;6.30;5.70;;;;;;;17.53;74.74;99545.36;131042;1251;106904;-76
2023/07/22 01:09:07;;;;;;;6.10;5.50;;;;;;;17.59;74.74;99540.80;131101;1250;107466;-75
2023/07/22 01:12:13;;;;;;;6.00;5.40;;;;;;;17.63;74.68;99531.11;131092;1249;107541;-75
2023/07/22 01:15:19;;;;;;;6.60;6.00;;;;;;;17.67;74.59;99530.67;131112;1251;107453;-75
2023/07/22 01:18:25;;;;;;;6.50;5.60;;;;;;;17.68;74.61;99528.05;131060;1254;106669;-75
2023/07/22 01:21:32;;;;;;;6.60;5.90;;;;;;;17.64;74.71;99530.44;131118;1252;107421;-77
2023/07/22 01:24:38;;;;;;;6.20;5.10;;;;;;;17.62;74.70;99538.67;131070;1265;107550;-75
2023/07/22 01:27:46;;;;;;;5.60;5.10;;;;;;;17.60;74.54;99539.55;131123;1251;107439;-75
2023/07/22 01:30:51;;;;;;;5.90;5.40;;;;;;;17.58;74.65;99536.87;131139;1250;108209;-75
2023/07/22 01:33:58;;;;;;;5.60;5.10;;;;;;;17.60;74.56;99535.52;131161;1253;107542;-75
2023/07/22 01:37:05;;;;;;;6.00;5.50;;;;;;;17.58;74.60;99535.99;131061;1251;106657;-75
2023/07/22 01:40:13;;;;;;;6.10;5.50;;;;;;;17.58;74.82;99525.84;131128;1252;107520;-75
2023/07/22 01:43:18;;;;;;;6.20;5.60;;;;;;;17.57;74.81;99527.95;131296;1253;107544;-75
2023/07/22 01:46:24;;;;;;;5.70;5.20;;;;;;;17.55;74.82;99526.92;131090;1252;107560;-78
2023/07/22 01:49:30;;;;;;;6.90;5.90;;;;;;;17.50;74.85;99527.45;131129;1252;107562;-75
2023/07/22 01:52:35;;;;;;;5.60;4.70;;;;;;;17.46;75.08;99519.38;131163;1253;107448;-73
2023/07/22 01:55:41;;;;;;;5.30;4.80;;;;;;;17.46;75.09;99516.88;131136;1252;107524;-74
2023/07/22 01:58:47;;;;;;;5.60;5.10;;;;;;;17.46;75.09;99518.05;131126;1253;107232;-73
2023/07/22 02:01:52;;;;;;;5.70;5.20;;;;;;;17.47;75.06;99512.83;131029;1254;107361;-74
2023/07/22 02:04:58;;;;;;;6.10;5.50;;;;;;;17.45;74.92;99513.87;131131;1251;107515;-73
2023/07/22 02:08:03;;;;;;;5.40;4.90;;;;;;;17.41;75.04;99511.81;131136;1251;107359;-74
2023/07/22 02:11:10;;;;;;;4.90;4.40;;;;;;;17.35;75.14;99511.55;131093;1252;107449;-73
2023/07/22 02:14:15;;;;;;;6.70;5.30;;;;;;;17.30;74.95;99512.46;131097;1248;106770;-73
2023/07/22 02:17:21;;;;;;;5.50;5.00;;;;;;;17.26;74.94;99513.06;131084;1254;107526;-73
2023/07/22 02:20:28;;;;;;;5.50;4.90;;;;;;;17.21;75.02;99511.16;131033;1254;107479;-74
2023/07/22 02:23:34;;;;;;;5.50;5.00;;;;;;;17.18;74.96;99507.29;131130;1252;106851;-73
2023/07/22 02:26:39;;;;;;;6.40;5.60;;;;;;;17.12;74.89;99500.22;131109;1252;107504;-73
2023/07/22 02:29:45;;;;;;;6.10;4.60;;;;;;;17.05;74.94;99499.88;131056;1253;107645;-73
2023/07/22 02:32:51;;;;;;;5.40;4.50;;;;;;;17.00;75.00;99502.22;131156;1252;107545;-73
2023/07/22 02:35:56;;;;;;;5.30;4.80;;;;;;;16.98;75.12;99501.70;131121;1250;107483;-74
2023/07/22 02:39:02;;;;;;;6.20;4.90;;;;;;;16.98;75.10;99504.39;131206;1252;107545;-74
2023/07/22 02:42:09;;;;;;;5.50;5.00;;;;;;;17.00;75.22;99504.55;131107;1251;107377;-73
2023/07/22 02:45:14;;;;;;;5.70;5.10;;;;;;;17.04;75.20;99501.13;131137;1250;107221;-73
2023/07/22 02:48:20;;;;;;;6.10;5.50;;;;;;;17.06;75.24;99510.20;131141;1250;107378;-73
2023/07/22 02:51:25;;;;;;;6.80;5.00;;;;;;;17.06;75.31;99508.46;131081;1254;107222;-73
2023/07/22 02:54:31;;;;;;;5.70;5.00;;;;;;;17.04;75.34;99507.77;131162;1263;107235;-74
2023/07/22 02:57:36;;;;;;;5.60;4.70;;;;;;;17.04;75.40;99511.37;131138;1252;107541;-73
2023/07/22 03:00:43;;;;;;;6.00;5.40;;;;;;;17.07;75.50;99520.48;131211;1255;106774;-73
2023/07/22 03:03:48;;;;;;;6.60;6.00;;;;;;;17.05;75.68;99519.66;131153;1253;107448;-73
2023/07/22 03:06:54;;;;;;;8.90;6.80;;;;;;;16.94;76.31;99525.05;131164;1252;107481;-73
2023/07/22 03:10:00;;;;;;;6.30;5.70;;;;;;;16.82;76.40;99531.87;131142;1253;107187;-73
2023/07/22 03:13:05;;;;;;;6.30;5.70;;;;;;;16.86;76.51;99539.58;131149;1252;106701;-73
2023/07/22 03:16:11;;;;;;;6.00;5.40;;;;;;;16.93;76.51;99538.61;131187;1250;107361;-73
2023/07/22 03:19:17;;;;;;;6.00;5.50;;;;;;;17.02;76.64;99540.27;131091;1250;107511;-74
2023/07/22 03:22:22;;;;;;;6.60;6.00;;;;;;;17.08;76.70;99541.38;131130;1254;107368;-73
2023/07/22 03:25:28;;;;;;;6.00;5.40;;;;;;;17.15;76.73;99545.63;131132;1263;107375;-74
2023/07/22 03:28:34;;;;;;;6.80;5.70;;;;;;;17.21;76.74;99544.73;131064;1250;106756;-74
2023/07/22 03:31:40;;;;;;;5.90;5.30;;;;;;;17.29;76.75;99543.20;131087;1252;107455;-74
2023/07/22 03:34:45;;;;;;;5.50;4.90;;;;;;;17.37;76.75;99548.35;131008;1252;109263;-74
2023/07/22 03:37:50;;;;;;;6.70;5.10;;;;;;;17.47;76.70;99545.96;131159;1254;108666;-74
2023/07/22 03:40:56;;;;;;;5.40;4.90;;;;;;;17.54;76.69;99545.90;131201;1254;106953;-74
2023/07/22 03:44:01;;;;;;;5.20;4.70;;;;;;;17.60;76.77;99549.60;131151;1250;107550;-75
2023/07/22 03:47:08;;;;;;;6.10;4.80;;;;;;;17.64;76.86;99550.02;131126;1249;107438;-75
2023/07/22 03:50:13;;;;;;;5.90;5.30;;;;;;;17.70;76.93;99558.68;131070;1250;107354;-75
2023/07/22 03:53:19;;;;;;;5.50;4.80;;;;;;;17.75;76.86;99561.38;131122;1249;107453;-74
2023/07/22 03:56:24;;;;;;;5.00;4.50;;;;;;;17.80;76.83;99561.77;131181;1252;107420;-74
2023/07/22 03:59:30;;;;;;;5.20;4.70;;;;;;;17.88;76.98;99552.36;131009;1254;108682;-75
2023/07/22 04:02:36;;;;;;;5.70;5.00;;;;;;;17.97;76.94;99555.04;131184;1249;107363;-75
2023/07/22 04:05:41;;;;;;;5.30;4.80;;;;;;;18.04;76.77;99559.27;131022;1253;105356;-75
2023/07/22 04:08:47;;;;;;;4.90;4.40;;;;;;;18.08;76.89;99559.35;131018;1265;108645;-74
2023/07/22 04:11:54;;;;;;;6.30;4.20;;;;;;;18.14;76.86;99564.50;131090;1253;107520;-75
2023/07/22 04:15:00;;;;;;;4.70;4.00;;;;;;;18.19;76.79;99567.72;131092;1252;107544;-74
2023/07/22 04:18:07;;;;;;;4.80;4.40;;;;;;;18.27;76.77;99568.77;131280;1250;107564;-74
2023/07/22 04:21:13;;;;;;;5.10;4.60;;;;;;;18.33;76.68;99569.46;131055;1252;107524;-74
2023/07/22 04:24:18;;;;;;;6.00;5.10;;;;;;;18.40;76.81;99570.23;131058;1252;105632;-73
2023/07/22 04:27:24;;;;;;;5.00;4.40;;;;;;;18.49;76.79;99569.25;131068;1253;107372;-73
2023/07/22 04:30:29;;;;;;;4.20;3.70;;;;;;;18.53;76.73;99576.73;131069;1253;106542;-73
2023/07/22 04:33:35;;;;;;;3.60;3.10;;;;;;;18.60;76.29;99587.02;131093;1251;107543;-75
2023/07/22 04:36:40;;;;;;;4.00;3.40;;;;;;;18.96;75.84;99587.66;131075;1252;107665;-75
2023/07/22 04:39:49;;;;;;;3.40;3.10;;;;;;;19.44;75.55;99588.39;131022;1252;107521;-75
2023/07/22 04:42:54;;;;;;;4.00;3.60;;;;;;;19.94;74.92;99593.18;131084;1252;107232;-75
2023/07/22 04:46:00;;;;;;;5.60;2.90;;;;;;;20.37;74.37;99590.47;131052;1252;107561;-74
2023/07/22 04:49:05;;;;;;;3.70;3.30;;;;;;;20.67;73.82;99589.79;131140;1252;107479;-74
2023/07/22 04:52:11;;;;;;;4.40;3.10;;;;;;;20.96;73.48;99588.77;131043;1252;107577;-75
2023/07/22 04:55:17;;;;;;;4.20;3.00;;;;;;;21.13;73.07;99599.61;131119;1249;107144;-75
2023/07/22 04:58:22;;;;;;;3.30;3.00;;;;;;;21.29;72.84;99598.98;131098;1249;107561;-75
2023/07/22 05:01:28;;;;;;;3.10;2.80;;;;;;;21.31;72.52;99608.25;131035;1252;107524;-75
2023/07/22 05:04:33;;;;;;;5.90;3.30;;;;;;;21.33;72.25;99599.65;131144;1252;107526;-76
2023/07/22 05:07:38;;;;;;;3.40;3.00;;;;;;;21.31;71.69;99595.60;131077;1250;107480;-75
2023/07/22 05:10:44;;;;;;;3.60;3.10;;;;;;;21.29;71.61;99594.13;131079;1252;107555;-75
2023/07/22 05:13:50;;;;;;;4.10;2.80;;;;;;;21.14;70.59;99592.46;131155;1250;109269;-76
2023/07/22 05:16:55;;;;;;;3.60;3.00;;;;;;;21.05;71.48;99596.28;131113;1249;107367;-76
2023/07/22 05:20:01;;;;;;;4.60;2.90;;;;;;;21.10;71.18;99595.10;131172;1251;107536;-76
2023/07/22 05:23:06;;;;;;;3.00;2.70;;;;;;;21.16;71.16;99595.77;131068;1250;107302;-76
2023/07/22 05:26:11;;;;;;;4.00;2.90;;;;;;;21.23;71.19;99601.64;131102;1252;107367;-76
2023/07/22 05:29:17;;;;;;;4.20;2.60;;;;;;;21.17;70.80;99609.64;131275;1252;106149;-76
2023/07/22 05:32:22;;;;;;;3.00;2.50;;;;;;;21.17;70.61;99615.48;131145;1252;107519;-76
2023/07/22 05:35:28;;;;;;;2.60;2.40;;;;;;;21.20;70.52;99623.36;131125;1250;107594;-76
2023/07/22 05:38:33;;;;;;;2.60;2.40;;;;;;;21.32;70.41;99618.29;131115;1252;107470;-76
2023/07/22 05:41:39;;;;;;;3.00;2.60;;;;;;;21.52;70.06;99612.65;131065;1252;107374;-75
2023/07/22 05:44:44;;;;;;;3.90;2.50;;;;;;;21.75;69.77;99614.13;131103;1252;106229;-76
2023/07/22 05:47:50;;;;;;;2.70;2.30;;;;;;;21.93;69.44;99610.55;131026;1252;107538;-75
2023/07/22 05:50:55;;;;;;;4.00;2.40;;;;;;;22.03;69.13;99606.39;131054;1253;107543;-75
2023/07/22 05:54:01;;;;;;;3.20;2.30;;;;;;;22.18;68.58;99613.61;131191;1249;107527;-75
2023/07/22 05:57:07;;;;;;;3.10;2.30;;;;;;;22.30;68.47;99619.61;131163;1250;106569;-75
2023/07/22 06:00:14;;;;;;;2.70;2.20;;;;;;;22.40;68.21;99621.19;131117;1252;107511;-75
2023/07/22 06:03:20;;;;;;;3.00;2.30;;;;;;;22.48;67.53;99614.96;131122;1252;107512;-75
2023/07/22 06:06:26;;;;;;;3.80;2.10;;;;;;;22.56;67.75;99617.91;131050;1252;105680;-76
2023/07/22 06:09:31;;;;;;;2.30;2.00;;;;;;;22.72;67.47;99623.06;131133;1251;107501;-77
2023/07/22 06:12:38;;;;;;;3.50;2.20;;;;;;;22.87;67.14;99626.23;131121;1250;109226;-75
2023/07/22 06:15:44;;;;;;;3.00;2.20;;;;;;;22.97;66.61;99628.61;131117;1252;107344;-75
2023/07/22 06:18:49;;;;;;;2.30;1.90;;;;;;;23.02;66.45;99627.70;131240;1252;106389;-75
2023/07/22 06:21:54;;;;;;;2.50;2.10;;;;;;;23.04;66.27;99625.67;131178;1250;109307;-75
2023/07/22 06:25:00;;;;;;;2.70;2.10;;;;;;;22.98;65.69;99629.21;131110;1252;107431;-75
2023/07/22 06:28:07;;;;;;;2.50;2.20;;;;;;;23.00;65.86;99630.97;131081;1252;108591;-75
2023/07/22 06:31:12;;;;;;;2.80;2.00;;;;;;;22.97;63.78;99632.30;131315;1252;108670;-75
2023/07/22 06:34:18;;;;;;;6.20;3.20;;;;;;;22.68;64.68;99632.73;131134;1254;107256;-75
2023/07/22 06:37:23;;;;;;;14.30;7.90;;;;;;;22.77;65.31;99632.10;131116;1250;108083;-76
2023/07/22 06:40:29;;;;;;;13.90;6.60;;;;;;;22.92;64.55;99636.68;131056;1252;107537;-76
2023/07/22 06:43:34;;;;;;;10.60;5.60;;;;;;;22.95;64.15;99643.91;131091;1252;107648;-75
2023/07/22 06:46:40;;;;;;;2.70;2.20;;;;;;;22.71;62.87;99642.17;131024;1252;107246;-76
2023/07/22 06:49:46;;;;;;;3.90;2.80;;;;;;;22.09;61.04;99643.33;131067;1254;106093;-75
2023/07/22 06:52:51;;;;;;;2.80;2.30;;;;;;;21.48;61.54;99644.75;131064;1252;107528;-75
2023/07/22 06:55:57;;;;;;;2.70;2.40;;;;;;;21.09;63.04;99653.25;131028;1254;105655;-75
2023/07/22 06:59:02;;;;;;;5.40;3.50;;;;;;;21.01;63.82;99651.05;131170;1253;107370;-76
2023/07/22 07:02:09;;;;;;;4.90;3.80;;;;;;;21.12;63.95;99654.05;131108;1252;107512;-76
2023/07/22 07:05:16;;;;;;;4.70;3.10;;;;;;;21.26;63.47;99654.89;131324;1248;107252;-77
2023/07/22 07:08:22;;;;;;;4.60;3.10;;;;;;;21.23;63.62;99661.04;131421;1251;107235;-76
2023/07/22 07:11:28;;;;;;;2.90;2.30;;;;;;;21.29;63.77;99661.01;131520;1251;107037;-77
2023/07/22 07:14:35;;;;;;;2.50;2.30;;;;;;;21.32;63.54;99659.98;131472;1250;107258;-78
2023/07/22 07:17:40;;;;;;;4.80;2.40;;;;;;;21.16;62.62;99663.42;131416;1262;107481;-74
2023/07/22 07:20:46;;;;;;;4.00;2.30;;;;;;;20.82;62.16;99670.46;131449;1250;107544;-73
2023/07/22 07:23:52;;;;;;;2.50;2.10;;;;;;;20.69;63.26;99679.21;131408;1251;106525;-73
2023/07/22 07:26:57;;;;;;;2.30;2.10;;;;;;;20.68;61.76;99687.25;131421;1250;107579;-74
2023/07/22 07:30:03;;;;;;;3.00;1.90;;;;;;;20.57;62.73;99690.10;131353;1250;107535;-73
2023/07/22 07:33:08;;;;;;;2.60;2.00;;;;;;;20.47;62.23;99693.09;131396;1251;107519;-73
2023/07/22 07:36:14;;;;;;;3.60;2.00;;;;;;;20.55;62.95;99697.27;131411;1248;107255;-75
2023/07/22 07:39:20;;;;;;;3.10;2.20;;;;;;;20.61;61.79;99703.88;131396;1252;107505;-74
2023/07/22 07:42:25;;;;;;;2.60;2.10;;;;;;;20.50;61.05;99699.84;131398;1248;107603;-74
2023/07/22 07:45:31;;;;;;;3.00;1.90;;;;;;;20.51;62.19;99703.78;131465;1251;107528;-73
2023/07/22 07:48:36;;;;;;;3.30;2.50;;;;;;;20.59;61.69;99706.60;131175;1252;107708;-73
2023/07/22 07:51:42;;;;;;;2.40;2.00;;;;;;;20.52;61.00;99706.06;131206;1251;107368;-73
2023/07/22 07:54:48;;;;;;;3.90;2.20;;;;;;;20.56;61.29;99712.14;131471;1251;106702;-74
2023/07/22 07:57:54;;;;;;;2.80;2.20;;;;;;;20.69;61.76;99716.08;131474;1251;107353;-74
2023/07/22 08:00:59;;;;;;;3.40;2.00;;;;;;;20.75;60.26;99720.79;131425;1250;107595;-74
2023/07/22 08:04:05;;;;;;;3.60;2.40;;;;;;;20.74;60.03;99729.31;131452;1260;107467;-74
2023/07/22 08:07:10;;;;;;;2.40;2.20;;;;;;;20.66;60.24;99725.23;131298;1251;107242;-74
2023/07/22 08:10:16;;;;;;;2.10;1.90;;;;;;;20.61;60.12;99728.14;131330;1250;107440;-75
2023/07/22 08:13:22;;;;;;;3.20;2.10;;;;;;;20.73;60.79;99725.29;131575;1252;108492;-75
2023/07/22 08:16:27;;;;;;;2.40;2.00;;;;;;;20.85;60.02;99727.35;131349;1250;107655;-74
2023/07/22 08:19:33;;;;;;;4.40;3.10;;;;;;;20.72;58.92;99733.95;131363;1248;107034;-75
2023/07/22 08:22:39;;;;;;;3.10;2.40;;;;;;;20.57;59.43;99734.52;131333;1252;107468;-74
2023/07/22 08:25:44;;;;;;;4.80;3.50;;;;;;;20.55;59.85;99738.96;131407;1252;105843;-75
2023/07/22 08:28:50;;;;;;;3.00;2.70;;;;;;;20.57;60.07;99736.79;131470;1248;107296;-74
2023/07/22 08:31:55;;;;;;;3.30;2.40;;;;;;;20.49;60.32;99746.70;131422;1251;108316;-77
2023/07/22 08:35:02;;;;;;;2.90;2.50;;;;;;;20.68;60.41;99740.04;132134;1247;107557;-76
2023/07/22 08:38:08;;;;;;;2.80;2.20;;;;;;;20.89;59.56;99750.86;135575;1248;107627;-75
2023/07/22 08:41:17;;;;;;;2.90;2.50;;;;;;;21.04;60.02;99746.97;134772;1247;107594;-74
2023/07/22 08:44:25;;;;;;;2.50;2.10;;;;;;;21.20;60.00;99743.45;134035;1247;107377;-76
2023/07/22 08:47:32;;;;;;;2.80;2.10;;;;;;;21.37;59.36;99745.02;131589;1254;107549;-76
2023/07/22 08:50:43;;;;;;;2.60;2.00;;;;;;;21.57;59.25;99748.12;131432;1252;107443;-74
2023/07/22 08:53:50;;;;;;;2.80;2.10;;;;;;;21.72;57.38;99755.44;131456;1254;107585;-76
2023/07/22 08:56:56;;;;;;;3.90;2.10;;;;;;;21.86;57.06;99754.66;131409;1250;107545;-75
2023/07/22 09:00:04;;;;;;;2.90;2.00;;;;;;;22.01;56.54;99752.89;131323;1251;107562;-77
2023/07/22 09:03:11;;;;;;;3.20;2.10;;;;;;;21.91;54.63;99758.77;131531;1250;107390;-73
2023/07/22 09:06:17;;;;;;;2.70;1.90;;;;;;;21.88;53.74;99759.54;131320;1250;107506;-73
2023/07/22 09:09:25;;;;;;;1.60;1.50;;;;;;;21.99;56.03;99754.77;131457;1253;107529;-76
2023/07/22 09:12:31;;;;;;;2.60;1.60;;;;;;;22.38;55.48;99754.60;131407;1251;107469;-74
2023/07/22 09:15:38;;;;;;;1.80;1.70;;;;;;;22.63;52.62;99758.09;131249;1248;107618;-76
2023/07/22 09:18:44;;;;;;;1.90;1.70;;;;;;;22.57;51.12;99755.63;131340;1251;106641;-76
2023/07/22 09:21:49;;;;;;;1.80;1.60;;;;;;;22.47;53.84;99758.75;131297;1248;107479;-75
2023/07/22 09:25:12;;;;;;;1.80;1.60;;;;;;;22.52;54.09;99755.80;131332;1246;106260;-75
2023/07/22 09:28:18;;;;;;;4.30;3.00;;;;;;;22.59;54.33;99762.79;131376;1251;107584;-74
2023/07/22 09:31:25;;;;;;;1.90;1.70;;;;;;;22.89;54.51;99758.02;131406;1250;106022;-76
2023/07/22 09:34:31;;;;;;;2.90;1.70;;;;;;;23.09;52.74;99757.39;131354;1250;108097;-73
2023/07/22 09:37:39;;;;;;;2.60;2.20;;;;;;;23.08;52.02;99764.83;131327;1248;109456;-74
2023/07/22 09:40:45;;;;;;;4.90;2.80;;;;;;;22.64;51.02;99766.47;131328;1251;107345;-77
2023/07/22 09:43:50;;;;;;;3.10;2.70;;;;;;;22.36;51.79;99772.54;131449;1249;107313;-74
2023/07/22 09:46:56;;;;;;;3.00;2.40;;;;;;;22.14;52.10;99776.45;131438;1247;107460;-75
2023/07/22 09:50:02;;;;;;;2.10;1.90;;;;;;;22.08;52.59;99771.30;131439;1250;107451;-73
2023/07/22 09:53:08;;;;;;;2.10;1.70;;;;;;;22.23;52.59;99769.66;131462;1250;107425;-76
2023/07/22 09:56:14;;;;;;;2.40;1.60;;;;;;;22.38;52.40;99766.02;131501;1247;107508;-74
2023/07/22 09:59:22;;;;;;;3.00;1.60;;;;;;;22.49;52.47;99768.25;131358;1253;106694;-73
2023/07/22 10:02:29;;;;;;;1.90;1.60;;;;;;;22.55;51.12;99773.14;131400;1256;108490;-79
2023/07/22 10:05:37;;;;;;;3.90;1.70;;;;;;;22.47;51.48;99776.32;131414;1251;107519;-77
2023/07/22 10:08:45;;;;;;;2.70;1.70;;;;;;;22.34;51.07;99782.23;131440;1250;107415;-72
2023/07/22 10:11:51;;;;;;;1.90;1.70;;;;;;;22.31;50.65;99785.98;131373;1251;107233;-74
2023/07/22 10:14:57;;;;;;;2.00;1.70;;;;;;;22.30;51.11;99783.24;131367;1251;105805;-79
2023/07/22 10:18:04;;;;;;;2.10;1.80;;;;;;;22.41;50.45;99777.73;131449;1253;107542;-76
2023/07/22 10:21:11;;;;;;;3.90;3.50;;;;;;;22.58;51.08;99771.20;131408;1250;105644;-76
2023/07/22 10:24:16;;;;;;;3.20;2.80;;;;;;;22.88;50.05;99769.02;131401;1250;107495;-73
2023/07/22 10:27:22;;;;;;;4.80;2.00;;;;;;;22.83;49.23;99775.27;131432;1251;107232;-73
2023/07/22 10:30:28;;;;;;;2.10;1.80;;;;;;;22.66;49.34;99779.33;131336;1251;107434;-74
2023/07/22 10:33:35;;;;;;;3.90;1.80;;;;;;;22.45;48.30;99787.16;131472;1248;107538;-75
2023/07/22 10:36:41;;;;;;;2.10;1.90;;;;;;;22.31;49.11;99791.71;131225;1250;107504;-73
2023/07/22 10:39:46;;;;;;;2.10;1.90;;;;;;;22.35;49.01;99792.41;131337;1251;107430;-74
2023/07/22 10:42:58;;;;;;;2.30;2.10;;;;;;;22.51;48.11;99789.99;131356;1250;107497;-74
2023/07/22 10:46:09;;;;;;;3.00;1.80;;;;;;;22.46;47.55;99783.37;131396;1250;107462;-75
2023/07/22 10:49:15;;;;;;;;;;;;;;;22.52;47.96;99780.38;131276;1259;107430;-75
2023/07/22 10:52:43;;;;;;;1.70;1.60;;;;;;;22.74;46.62;99783.01;131407;1257;107248;-74
2023/07/22 10:56:20;;;;;;;2.00;1.80;;;;;;;22.87;47.14;99785.24;131524;1247;107534;-76
2023/07/22 10:59:29;;;;;;;1.80;1.40;;;;;;;22.75;45.65;99798.42;131517;1249;107158;-76
2023/07/22 11:02:34;;;;;;;2.70;1.80;;;;;;;22.51;45.83;99797.81;131403;1251;107609;-77
2023/07/22 11:05:55;;;;;;;2.00;1.60;;;;;;;22.35;45.19;99801.55;131366;1254;107120;-75
2023/07/22 11:09:01;;;;;;;2.00;1.70;;;;;;;22.32;46.20;99799.27;131476;1250;107517;-75
2023/07/22 11:12:10;;;;;;;2.10;1.90;;;;;;;22.53;46.51;99795.64;131411;1250;105691;-76
2023/07/22 11:15:18;;;;;;;3.10;1.60;;;;;;;22.67;46.08;99787.20;131299;1253;107199;-76
2023/07/22 11:18:35;;;;;;;3.10;1.70;;;;;;;22.83;46.53;99787.18;131373;1254;107509;-74
2023/07/22 11:21:41;;;;;;;2.50;1.90;;;;;;;22.86;46.55;99791.16;131286;1254;107236;-77
2023/07/22 11:24:47;;;;;;;1.80;1.60;;;;;;;22.85;45.19;99796.70;131360;1253;107932;-74
2023/07/22 11:27:52;;;;;;;2.80;2.00;;;;;;;22.71;44.69;99798.80;131392;1252;107459;-74
2023/07/22 11:30:58;;;;;;;2.10;1.70;;;;;;;22.90;46.03;99792.75;131399;1250;107436;-74
2023/07/22 11:34:04;;;;;;;2.00;1.80;;;;;;;23.23;45.54;99777.71;131373;1251;105940;-74
2023/07/22 11:37:10;;;;;;;2.80;1.80;;;;;;;23.42;45.14;99779.03;131380;1251;106474;-77
2023/07/22 11:40:16;;;;;;;2.20;1.90;;;;;;;23.47;44.48;99787.00;131398;1252;107229;-75
2023/07/22 11:43:23;;;;;;;4.20;1.80;;;;;;;23.35;43.62;99789.33;131404;1251;107496;-73
2023/07/22 11:46:31;;;;;;;1.70;1.50;;;;;;;23.24;44.12;99787.46;131332;1252;107579;-74
2023/07/22 11:49:39;;;;;;;1.60;1.50;;;;;;;23.29;44.53;99784.39;131310;1250;107400;-75
2023/07/22 11:52:50;;;;;;;5.10;2.00;;;;;;;23.33;45.14;99789.29;131445;1250;107525;-74
2023/07/22 11:55:57;;;;;;;2.30;1.80;;;;;;;23.09;44.27;99796.41;131359;1250;107288;-74
2023/07/22 11:59:02;;;;;;;1.90;1.60;;;;;;;22.91;44.82;99798.48;131568;1251;107597;-75
2023/07/22 12:02:13;;;;;;;2.00;1.70;;;;;;;22.80;43.90;99805.48;131453;1251;108469;-74
2023/07/22 12:05:24;;;;;;;1.90;1.70;;;;;;;22.53;44.19;99808.64;131363;1248;105793;-74
2023/07/22 12:08:29;;;;;;;2.60;1.80;;;;;;;22.54;44.84;99803.86;131383;1251;107554;-74
2023/07/22 12:11:35;;;;;;;3.20;1.80;;;;;;;22.62;44.23;99804.55;131335;1251;107516;-73
2023/07/22 12:14:43;;;;;;;2.00;1.90;;;;;;;22.72;44.70;99799.64;131463;1260;107434;-74
2023/07/22 12:17:52;;;;;;;1.90;1.50;;;;;;;22.73;45.01;99798.50;131346;1252;107522;-74
2023/07/22 12:20:59;;;;;;;2.10;1.90;;;;;;;22.64;44.53;99800.41;131409;1251;106739;-75
2023/07/22 12:24:05;;;;;;;2.00;1.80;;;;;;;22.64;44.81;99803.99;131470;1253;107502;-73
2023/07/22 12:27:11;;;;;;;2.00;1.80;;;;;;;22.83;45.06;99802.20;131338;1250;107544;-74
2023/07/22 12:30:17;;;;;;;2.10;1.90;;;;;;;22.99;44.93;99802.05;131390;1250;107482;-74
2023/07/22 12:33:22;;;;;;;2.90;2.10;;;;;;;22.95;44.41;99802.48;131383;1248;106355;-74
2023/07/22 12:36:28;;;;;;;3.80;2.10;;;;;;;22.89;44.65;99800.48;131146;1252;134674;-74
2023/07/22 12:39:34;;;;;;;2.20;2.00;;;;;;;22.94;44.52;99799.68;131328;1253;106542;-75
2023/07/22 12:42:40;;;;;;;2.90;2.50;;;;;;;23.00;44.50;99801.41;131349;1251;107195;-74
2023/07/22 12:45:45;;;;;;;3.30;2.10;;;;;;;23.03;44.80;99795.08;131333;1251;108546;-75
2023/07/22 12:48:51;;;;;;;3.30;2.50;;;;;;;23.15;44.48;99795.55;131416;1250;107487;-74
2023/07/22 12:52:03;;;;;;;3.80;3.10;;;;;;;23.17;44.01;99804.73;131418;1251;106650;-75
2023/07/22 12:55:10;;;;;;;5.90;3.20;;;;;;;23.21;43.89;99811.27;131396;1257;107469;-74
2023/07/22 12:58:16;;;;;;;4.90;3.00;;;;;;;23.15;43.60;99811.80;131471;1261;107369;-74
2023/07/22 13:01:21;;;;;;;5.00;2.60;;;;;;;23.25;44.41;99796.48;131304;1251;107492;-73
2023/07/22 13:04:27;;;;;;;2.80;2.60;;;;;;;23.27;44.88;99795.96;131370;1254;107795;-75
2023/07/22 13:07:32;;;;;;;3.10;2.50;;;;;;;23.40;44.12;99801.59;131494;1248;107229;-75
2023/07/22 13:10:39;;;;;;;2.50;2.20;;;;;;;23.43;43.37;99795.77;131362;1254;107493;-74
2023/07/22 13:13:47;;;;;;;5.60;3.10;;;;;;;23.64;43.58;99802.44;131406;1254;106617;-74
2023/07/22 13:16:53;;;;;;;4.10;2.50;;;;;;;23.68;41.97;99799.71;131363;1253;107630;-75
2023/07/22 13:19:58;;;;;;;2.60;2.40;;;;;;;23.53;40.92;99808.76;131397;1253;107093;-76
2023/07/22 13:23:04;;;;;;;3.00;2.10;;;;;;;23.42;42.58;99800.70;131251;1252;107592;-76
2023/07/22 13:26:09;;;;;;;3.70;2.10;;;;;;;23.61;42.74;99807.08;131430;1252;107459;-75
2023/07/22 13:29:15;;;;;;;4.60;1.90;;;;;;;23.69;41.74;99807.30;131329;1252;108102;-75
2023/07/22 13:32:20;;;;;;;1.90;1.80;;;;;;;23.88;42.17;99802.69;131352;1250;107312;-75
2023/07/22 13:35:26;;;;;;;2.30;1.80;;;;;;;24.15;42.12;99801.84;131382;1252;107358;-75
2023/07/22 13:38:31;;;;;;;2.10;1.80;;;;;;;24.36;40.90;99813.38;131427;1251;106528;-75
2023/07/22 13:41:37;;;;;;;2.00;1.80;;;;;;;24.37;38.88;99809.94;131417;1251;107532;-75
2023/07/22 13:44:42;;;;;;;5.60;2.00;;;;;;;24.29;40.41;99806.20;131504;1254;107261;-75
2023/07/22 13:47:48;;;;;;;3.70;2.00;;;;;;;24.25;39.06;99811.61;131380;1253;107481;-75
2023/07/22 13:50:53;;;;;;;5.70;2.10;;;;;;;24.04;38.64;99814.83;131414;1259;107108;-75
2023/07/22 13:53:59;;;;;;;2.10;1.80;;;;;;;23.83;39.44;99819.35;131408;1250;107405;-75
2023/07/22 13:57:05;;;;;;;2.10;1.90;;;;;;;23.79;40.68;99819.23;131310;1250;105895;-75
2023/07/22 14:00:13;;;;;;;1.90;1.70;;;;;;;23.85;40.43;99826.79;131398;1250;107568;-75
2023/07/22 14:03:19;;;;;;;2.60;1.60;;;;;;;23.83;39.74;99824.11;131559;1254;107227;-74
2023/07/22 14:06:24;;;;;;;3.00;1.90;;;;;;;23.78;39.74;99831.38;131172;1254;107340;-73
2023/07/22 14:09:30;;;;;;;2.50;1.90;;;;;;;23.66;39.75;99836.25;131470;1254;107466;-73
2023/07/22 14:12:35;;;;;;;1.90;1.70;;;;;;;23.46;39.12;99830.67;131520;1250;107518;-74
2023/07/22 14:15:41;;;;;;;3.20;1.80;;;;;;;23.38;39.80;99826.89;131423;1251;107397;-74